createdAt,value
2023-02-14T00:00:07.374Z,0
2023-02-14T00:01:07.373Z,0
2023-02-14T00:02:07.391Z,0
2023-02-14T00:03:07.467Z,0
2023-02-14T00:04:07.433Z,0
2023-02-14T00:05:07.375Z,0
2023-02-14T00:06:07.364Z,0
2023-02-14T00:07:07.366Z,0
2023-02-14T00:08:07.373Z,0
2023-02-14T00:09:07.376Z,0
2023-02-14T00:10:07.373Z,0
2023-02-14T00:11:07.380Z,0
2023-02-14T00:12:07.383Z,0
2023-02-14T00:13:07.382Z,0
2023-02-14T00:14:07.382Z,0
2023-02-14T00:15:07.388Z,0
2023-02-14T00:16:07.418Z,0
2023-02-14T00:17:07.386Z,0
2023-02-14T00:18:07.511Z,0
2023-02-14T00:19:07.394Z,0
2023-02-14T00:20:07.404Z,0
2023-02-14T00:21:07.406Z,0
2023-02-14T00:22:07.386Z,0
2023-02-14T00:23:07.395Z,0
2023-02-14T00:24:07.390Z,0
2023-02-14T00:25:07.404Z,0
2023-02-14T00:26:07.395Z,0
2023-02-14T00:27:07.405Z,0
2023-02-14T00:28:07.403Z,0
2023-02-14T00:29:07.419Z,0
2023-02-14T00:30:07.443Z,0
2023-02-14T00:31:07.563Z,0
2023-02-14T00:32:07.429Z,0
2023-02-14T00:33:07.403Z,0
2023-02-14T00:34:07.437Z,0
2023-02-14T00:35:07.413Z,0
2023-02-14T00:36:07.591Z,0
2023-02-14T00:37:07.405Z,0
2023-02-14T00:38:07.405Z,0
2023-02-14T00:39:07.413Z,0
2023-02-14T00:40:07.407Z,0
2023-02-14T00:41:07.441Z,0
2023-02-14T00:42:07.414Z,0
2023-02-14T00:43:07.422Z,0
2023-02-14T00:44:07.416Z,0
2023-02-14T00:45:07.431Z,0
2023-02-14T00:46:07.463Z,0
2023-02-14T00:47:07.425Z,0
2023-02-14T00:48:07.440Z,0
2023-02-14T00:49:07.427Z,0
2023-02-14T00:50:07.503Z,0
2023-02-14T00:51:07.433Z,0
2023-02-14T00:52:07.425Z,0
2023-02-14T00:53:07.422Z,0
2023-02-14T00:54:07.454Z,0
2023-02-14T00:55:07.430Z,0
2023-02-14T00:56:07.440Z,0
2023-02-14T00:57:07.435Z,0
2023-02-14T00:58:07.436Z,0
2023-02-14T00:59:07.443Z,0
2023-02-14T01:00:07.435Z,0
2023-02-14T01:01:07.498Z,0
2023-02-14T01:02:07.486Z,0
2023-02-14T01:03:07.446Z,0
2023-02-14T01:04:07.444Z,0
2023-02-14T01:05:07.451Z,0
2023-02-14T01:06:07.486Z,0
2023-02-14T01:07:07.457Z,0
2023-02-14T01:08:07.444Z,0
2023-02-14T01:09:07.476Z,0
2023-02-14T01:10:07.456Z,0
2023-02-14T01:11:07.476Z,0
2023-02-14T01:12:07.454Z,0
2023-02-14T01:13:07.445Z,0
2023-02-14T01:14:07.454Z,0
2023-02-14T01:15:07.458Z,0
2023-02-14T01:16:07.463Z,0
2023-02-14T01:17:07.454Z,0
2023-02-14T01:18:07.467Z,0
2023-02-14T01:19:07.453Z,0
2023-02-14T01:20:07.460Z,0
2023-02-14T01:21:07.451Z,0
2023-02-14T01:22:07.482Z,0
2023-02-14T01:23:07.475Z,0
2023-02-14T01:24:07.459Z,0
2023-02-14T01:25:07.485Z,0
2023-02-14T01:26:07.476Z,0
2023-02-14T01:27:07.487Z,0
2023-02-14T01:28:07.463Z,0
2023-02-14T01:29:07.473Z,0
2023-02-14T01:30:07.580Z,0
2023-02-14T01:31:07.507Z,0
2023-02-14T01:32:07.555Z,0
2023-02-14T01:33:07.470Z,0
2023-02-14T01:34:07.482Z,0
2023-02-14T01:35:07.468Z,0
2023-02-14T01:36:07.478Z,0
2023-02-14T01:37:07.491Z,0
2023-02-14T01:38:07.518Z,0
2023-02-14T01:39:07.484Z,0
2023-02-14T01:40:07.481Z,0
2023-02-14T01:41:07.494Z,0
2023-02-14T01:42:07.485Z,0
2023-02-14T01:43:07.484Z,0
2023-02-14T01:44:07.488Z,0
2023-02-14T01:45:07.487Z,0
2023-02-14T01:46:07.563Z,0
2023-02-14T01:47:07.496Z,0
2023-02-14T01:48:07.506Z,0
2023-02-14T01:49:07.505Z,0
2023-02-14T01:50:07.521Z,0
2023-02-14T01:51:07.506Z,0
2023-02-14T01:52:07.504Z,0
2023-02-14T01:53:07.497Z,0
2023-02-14T01:54:07.519Z,0
2023-02-14T01:55:07.504Z,0
2023-02-14T01:56:07.500Z,0
2023-02-14T01:57:07.507Z,0
2023-02-14T01:58:07.503Z,0
2023-02-14T01:59:08.521Z,0
2023-02-14T02:00:07.499Z,0
2023-02-14T02:01:07.596Z,0
2023-02-14T02:02:07.563Z,0
2023-02-14T02:03:07.531Z,0
2023-02-14T02:04:07.509Z,0
2023-02-14T02:05:07.506Z,0
2023-02-14T02:06:07.516Z,0
2023-02-14T02:07:07.507Z,0
2023-02-14T02:08:07.513Z,0
2023-02-14T02:09:07.532Z,0
2023-02-14T02:10:07.550Z,0
2023-02-14T02:11:07.500Z,0
2023-02-14T02:12:07.511Z,0
2023-02-14T02:13:07.533Z,0
2023-02-14T02:14:07.530Z,0
2023-02-14T02:15:07.517Z,0
2023-02-14T02:16:07.526Z,0
2023-02-14T02:17:07.526Z,3.4000000000000004
2023-02-14T02:18:07.513Z,2.8000000000000003
2023-02-14T02:19:07.520Z,2
2023-02-14T02:20:07.520Z,0
2023-02-14T02:21:07.522Z,0
2023-02-14T02:22:07.523Z,0
2023-02-14T02:23:07.535Z,0
2023-02-14T02:24:07.524Z,0
2023-02-14T02:25:07.530Z,0
2023-02-14T02:26:07.555Z,0
2023-02-14T02:27:08.553Z,0
2023-02-14T02:28:07.539Z,0
2023-02-14T02:29:07.527Z,0
2023-02-14T02:30:07.587Z,0
2023-02-14T02:31:07.691Z,0
2023-02-14T02:32:07.601Z,0
2023-02-14T02:33:07.538Z,0
2023-02-14T02:34:07.546Z,0
2023-02-14T02:35:07.536Z,0
2023-02-14T02:36:07.544Z,0
2023-02-14T02:37:07.528Z,0
2023-02-14T02:38:07.528Z,0
2023-02-14T02:39:07.535Z,0
2023-02-14T02:40:07.544Z,0
2023-02-14T02:41:07.531Z,0
2023-02-14T02:42:07.573Z,0
2023-02-14T02:43:07.537Z,0
2023-02-14T02:44:07.544Z,0
2023-02-14T02:45:07.546Z,0
2023-02-14T02:46:07.630Z,0
2023-02-14T02:47:07.537Z,0
2023-02-14T02:48:07.532Z,0
2023-02-14T02:49:07.532Z,0
2023-02-14T02:50:07.540Z,3.1
2023-02-14T02:51:07.538Z,2.9000000000000004
2023-02-14T02:52:07.564Z,2.8000000000000003
2023-02-14T02:53:07.538Z,0
2023-02-14T02:54:07.572Z,0
2023-02-14T02:55:07.540Z,0
2023-02-14T02:56:07.548Z,0
2023-02-14T02:57:07.568Z,0
2023-02-14T02:58:07.568Z,0
2023-02-14T02:59:07.542Z,0
2023-02-14T03:00:07.548Z,0
2023-02-14T03:01:07.568Z,0
2023-02-14T03:02:07.554Z,0
2023-02-14T03:03:07.554Z,0
2023-02-14T03:04:07.548Z,0
2023-02-14T03:05:07.579Z,0
2023-02-14T03:06:07.568Z,0
2023-02-14T03:07:07.558Z,0
2023-02-14T03:08:07.558Z,0
2023-02-14T03:09:07.545Z,0
2023-02-14T03:10:07.550Z,0
2023-02-14T03:11:07.554Z,0
2023-02-14T03:12:07.557Z,0
2023-02-14T03:13:07.551Z,0
2023-02-14T03:14:07.577Z,0
2023-02-14T03:15:07.559Z,0
2023-02-14T03:16:07.613Z,0
2023-02-14T03:17:07.578Z,0
2023-02-14T03:18:07.563Z,0
2023-02-14T03:19:07.548Z,0
2023-02-14T03:20:07.567Z,0
2023-02-14T03:21:07.558Z,0
2023-02-14T03:22:07.566Z,0
2023-02-14T03:23:07.556Z,0
2023-02-14T03:24:07.569Z,0
2023-02-14T03:25:07.569Z,0
2023-02-14T03:26:07.560Z,0
2023-02-14T03:27:07.575Z,0
2023-02-14T03:28:07.559Z,0
2023-02-14T03:29:07.558Z,0
2023-02-14T03:30:07.652Z,0
2023-02-14T03:31:07.658Z,0
2023-02-14T03:32:07.686Z,0
2023-02-14T03:33:07.560Z,0
2023-02-14T03:34:07.565Z,0
2023-02-14T03:35:07.571Z,0
2023-02-14T03:36:07.560Z,0
2023-02-14T03:37:07.556Z,0
2023-02-14T03:38:07.575Z,0
2023-02-14T03:39:07.569Z,0
2023-02-14T03:40:07.573Z,0
2023-02-14T03:41:07.565Z,0
2023-02-14T03:42:07.574Z,0
2023-02-14T03:43:07.568Z,0
2023-02-14T03:44:07.571Z,0
2023-02-14T03:45:07.666Z,0
2023-02-14T03:46:07.648Z,0
2023-02-14T03:47:07.572Z,0
2023-02-14T03:48:07.575Z,0
2023-02-14T03:49:07.581Z,0
2023-02-14T03:50:07.582Z,0
2023-02-14T03:51:07.580Z,0
2023-02-14T03:52:07.589Z,0
2023-02-14T03:53:07.584Z,0
2023-02-14T03:54:07.579Z,0
2023-02-14T03:55:07.573Z,0
2023-02-14T03:56:07.584Z,0
2023-02-14T03:57:07.585Z,0
2023-02-14T03:58:07.592Z,0
2023-02-14T03:59:07.585Z,0
2023-02-14T04:00:07.575Z,0
2023-02-14T04:01:07.564Z,0
2023-02-14T04:02:07.656Z,0
2023-02-14T04:03:07.672Z,0
2023-02-14T04:04:07.577Z,0
2023-02-14T04:05:07.570Z,0
2023-02-14T04:06:07.604Z,0
2023-02-14T04:07:07.578Z,0
2023-02-14T04:08:07.575Z,0
2023-02-14T04:09:07.574Z,0
2023-02-14T04:10:07.582Z,0
2023-02-14T04:11:07.587Z,0
2023-02-14T04:12:07.579Z,0
2023-02-14T04:13:07.597Z,0
2023-02-14T04:14:07.575Z,0
2023-02-14T04:15:07.578Z,0
2023-02-14T04:16:07.669Z,0
2023-02-14T04:17:07.596Z,0
2023-02-14T04:18:07.603Z,0
2023-02-14T04:19:07.584Z,0
2023-02-14T04:20:07.579Z,0
2023-02-14T04:21:07.577Z,0
2023-02-14T04:22:07.581Z,0
2023-02-14T04:23:07.583Z,0
2023-02-14T04:24:07.584Z,0
2023-02-14T04:25:07.580Z,0
2023-02-14T04:26:07.593Z,0
2023-02-14T04:27:07.574Z,0
2023-02-14T04:28:07.595Z,0
2023-02-14T04:29:07.586Z,0
2023-02-14T04:30:07.670Z,0
2023-02-14T04:31:07.675Z,0
2023-02-14T04:32:07.683Z,0
2023-02-14T04:33:07.599Z,0
2023-02-14T04:34:07.602Z,0
2023-02-14T04:35:07.587Z,0
2023-02-14T04:36:07.592Z,0
2023-02-14T04:37:07.593Z,0
2023-02-14T04:38:07.593Z,0
2023-02-14T04:39:07.581Z,0
2023-02-14T04:40:07.575Z,0
2023-02-14T04:41:07.609Z,0
2023-02-14T04:42:07.593Z,0
2023-02-14T04:43:07.583Z,0
2023-02-14T04:44:07.590Z,0
2023-02-14T04:45:07.575Z,0
2023-02-14T04:46:07.637Z,0
2023-02-14T04:47:07.586Z,0
2023-02-14T04:48:07.584Z,0
2023-02-14T04:49:07.591Z,0
2023-02-14T04:50:07.605Z,0
2023-02-14T04:51:07.586Z,0
2023-02-14T04:52:07.596Z,0
2023-02-14T04:53:07.584Z,0
2023-02-14T04:54:07.586Z,0
2023-02-14T04:55:07.586Z,0
2023-02-14T04:56:07.583Z,0
2023-02-14T04:57:07.592Z,0
2023-02-14T04:58:07.588Z,0
2023-02-14T04:59:07.585Z,0
2023-02-14T05:00:07.588Z,0
2023-02-14T05:01:07.647Z,0
2023-02-14T05:02:07.676Z,0
2023-02-14T05:03:07.585Z,0
2023-02-14T05:04:07.584Z,0
2023-02-14T05:05:07.588Z,0
2023-02-14T05:06:07.605Z,0
2023-02-14T05:07:07.592Z,0
2023-02-14T05:08:07.594Z,0
2023-02-14T05:09:07.596Z,0
2023-02-14T05:10:07.605Z,0
2023-02-14T05:11:07.582Z,0
2023-02-14T05:12:07.601Z,0
2023-02-14T05:13:07.600Z,0
2023-02-14T05:14:07.587Z,0
2023-02-14T05:15:07.610Z,0
2023-02-14T05:16:07.682Z,0
2023-02-14T05:17:07.606Z,0
2023-02-14T05:18:07.626Z,0
2023-02-14T05:19:07.598Z,0
2023-02-14T05:20:07.600Z,0
2023-02-14T05:21:07.601Z,0
2023-02-14T05:22:07.632Z,0
2023-02-14T05:23:07.612Z,0
2023-02-14T05:24:07.618Z,0
2023-02-14T05:25:07.597Z,0
2023-02-14T05:26:07.608Z,0
2023-02-14T05:27:07.615Z,0
2023-02-14T05:28:07.606Z,0
2023-02-14T05:29:07.596Z,0
2023-02-14T05:30:07.655Z,0
2023-02-14T05:31:07.630Z,0
2023-02-14T05:32:07.623Z,0
2023-02-14T05:33:07.612Z,0
2023-02-14T05:34:07.613Z,0
2023-02-14T05:35:07.606Z,0
2023-02-14T05:36:07.638Z,0
2023-02-14T05:37:07.604Z,0
2023-02-14T05:38:07.727Z,0
2023-02-14T05:39:07.616Z,0
2023-02-14T05:40:07.606Z,0
2023-02-14T05:41:07.603Z,0
2023-02-14T05:43:07.600Z,0
2023-02-14T05:44:07.607Z,0
2023-02-14T05:45:07.613Z,0
2023-02-14T05:46:07.657Z,0
2023-02-14T05:47:07.618Z,0
2023-02-14T05:48:07.612Z,0
2023-02-14T05:49:07.602Z,0
2023-02-14T05:50:07.618Z,0
2023-02-14T05:51:07.626Z,0
2023-02-14T05:52:07.602Z,0
2023-02-14T05:53:07.634Z,0
2023-02-14T05:54:09.386Z,0
2023-02-14T05:55:07.627Z,0
2023-02-14T05:56:07.627Z,0
2023-02-14T05:57:07.618Z,0
2023-02-14T05:58:07.621Z,0
2023-02-14T05:59:07.641Z,0
2023-02-14T06:00:07.618Z,0
2023-02-14T06:01:07.612Z,0
2023-02-14T06:02:07.671Z,0
2023-02-14T06:03:07.624Z,0
2023-02-14T06:04:07.685Z,0
2023-02-14T06:05:07.633Z,0
2023-02-14T06:06:07.626Z,0
2023-02-14T06:07:07.623Z,0
2023-02-14T06:08:07.621Z,0
2023-02-14T06:09:07.652Z,0
2023-02-14T06:10:07.665Z,0
2023-02-14T06:11:07.642Z,0
2023-02-14T06:12:07.640Z,0
2023-02-14T06:13:07.631Z,0
2023-02-14T06:14:07.630Z,0
2023-02-14T06:15:07.642Z,0
2023-02-14T06:16:07.647Z,0
2023-02-14T06:17:07.624Z,0
2023-02-14T06:18:07.630Z,0
2023-02-14T06:19:07.639Z,0
2023-02-14T06:20:07.626Z,0
2023-02-14T06:21:07.633Z,0
2023-02-14T06:22:07.637Z,0
2023-02-14T06:23:07.650Z,0
2023-02-14T06:24:07.633Z,0
2023-02-14T06:25:07.637Z,0
2023-02-14T06:26:07.665Z,0
2023-02-14T06:27:07.635Z,0
2023-02-14T06:28:07.648Z,0
2023-02-14T06:29:07.645Z,0
2023-02-14T06:30:07.719Z,0
2023-02-14T06:31:07.759Z,0
2023-02-14T06:32:07.828Z,0
2023-02-14T06:33:07.641Z,0
2023-02-14T06:34:07.652Z,0
2023-02-14T06:35:07.652Z,0
2023-02-14T06:36:07.676Z,0
2023-02-14T06:37:07.659Z,0
2023-02-14T06:38:07.655Z,0
2023-02-14T06:39:07.652Z,0
2023-02-14T06:40:07.669Z,0
2023-02-14T06:41:07.652Z,0
2023-02-14T06:42:07.752Z,0
2023-02-14T06:43:07.650Z,0
2023-02-14T06:44:07.644Z,0
2023-02-14T06:45:07.675Z,0
2023-02-14T06:46:07.728Z,0
2023-02-14T06:47:07.659Z,0
2023-02-14T06:48:07.661Z,0
2023-02-14T06:49:07.650Z,3.6
2023-02-14T06:50:07.655Z,3.1
2023-02-14T06:51:07.663Z,4.4
2023-02-14T06:52:07.679Z,3.1
2023-02-14T06:53:08.576Z,3.7
2023-02-14T06:54:07.665Z,0
2023-02-14T06:55:07.690Z,0
2023-02-14T06:56:07.691Z,0
2023-02-14T06:57:07.660Z,0
2023-02-14T06:58:07.693Z,0
2023-02-14T06:59:07.666Z,0
2023-02-14T07:00:07.668Z,0
2023-02-14T07:01:07.707Z,0
2023-02-14T07:02:07.728Z,0
2023-02-14T07:03:07.670Z,0
2023-02-14T07:04:07.685Z,0
2023-02-14T07:05:07.680Z,0
2023-02-14T07:06:07.706Z,0
2023-02-14T07:07:07.690Z,0
2023-02-14T07:08:07.678Z,0
2023-02-14T07:09:07.677Z,0
2023-02-14T07:10:07.677Z,1.6
2023-02-14T07:11:07.677Z,0
2023-02-14T07:12:07.676Z,0
2023-02-14T07:13:07.680Z,0
2023-02-14T07:14:07.701Z,0
2023-02-14T07:15:07.692Z,0
2023-02-14T07:16:07.748Z,0
2023-02-14T07:17:07.685Z,0
2023-02-14T07:18:07.682Z,0
2023-02-14T07:19:07.680Z,0
2023-02-14T07:20:07.711Z,0
2023-02-14T07:21:07.687Z,0
2023-02-14T07:22:07.687Z,0
2023-02-14T07:23:07.692Z,0
2023-02-14T07:24:07.707Z,0
2023-02-14T07:25:07.688Z,0
2023-02-14T07:26:07.690Z,0
2023-02-14T07:27:07.685Z,0
2023-02-14T07:28:07.692Z,0
2023-02-14T07:29:07.689Z,0
2023-02-14T07:30:07.793Z,0
2023-02-14T07:31:07.776Z,0
2023-02-14T07:32:07.768Z,0
2023-02-14T07:33:07.692Z,0
2023-02-14T07:34:07.688Z,0
2023-02-14T07:35:07.689Z,0
2023-02-14T07:36:07.696Z,0
2023-02-14T07:37:07.692Z,0
2023-02-14T07:38:07.688Z,0
2023-02-14T07:39:07.697Z,0
2023-02-14T07:40:14.279Z,0
2023-02-14T07:41:07.690Z,0
2023-02-14T07:42:07.685Z,0
2023-02-14T07:43:07.693Z,0
2023-02-14T07:44:07.692Z,0
2023-02-14T07:45:20.581Z,0
2023-02-14T07:46:07.761Z,0
2023-02-14T07:47:07.700Z,0
2023-02-14T07:48:07.698Z,0
2023-02-14T07:49:07.691Z,0
2023-02-14T07:50:07.695Z,0
2023-02-14T07:51:07.693Z,0
2023-02-14T07:52:07.704Z,0
2023-02-14T07:53:07.701Z,0
2023-02-14T07:54:07.697Z,0
2023-02-14T07:55:07.705Z,0
2023-02-14T07:56:07.699Z,0
2023-02-14T07:57:07.706Z,0
2023-02-14T07:58:07.688Z,0
2023-02-14T07:59:07.706Z,0
2023-02-14T08:00:07.697Z,0
2023-02-14T08:01:07.712Z,0
2023-02-14T08:02:07.723Z,0
2023-02-14T08:03:07.710Z,0
2023-02-14T08:04:07.703Z,0
2023-02-14T08:05:07.772Z,0
2023-02-14T08:06:07.694Z,0
2023-02-14T08:07:07.704Z,0
2023-02-14T08:08:07.706Z,0
2023-02-14T08:09:07.700Z,0
2023-02-14T08:10:07.712Z,0
2023-02-14T08:11:07.707Z,0
2023-02-14T08:12:07.691Z,0
2023-02-14T08:13:07.718Z,0
2023-02-14T08:14:07.698Z,0
2023-02-14T08:15:07.712Z,0
2023-02-14T08:16:07.825Z,0
2023-02-14T08:17:07.701Z,0
2023-02-14T08:18:07.721Z,0
2023-02-14T08:19:07.713Z,0
2023-02-14T08:20:07.716Z,0
2023-02-14T08:21:07.710Z,0
2023-02-14T08:22:07.699Z,0
2023-02-14T08:23:07.724Z,0
2023-02-14T08:24:07.706Z,0
2023-02-14T08:25:07.708Z,0
2023-02-14T08:26:07.722Z,0
2023-02-14T08:27:07.716Z,0
2023-02-14T08:28:07.712Z,0
2023-02-14T08:29:07.719Z,0
2023-02-14T08:30:07.789Z,0
2023-02-14T08:31:07.741Z,0
2023-02-14T08:32:07.815Z,0
2023-02-14T08:33:07.731Z,0
2023-02-14T08:34:07.741Z,0
2023-02-14T08:35:07.722Z,0
2023-02-14T08:36:07.737Z,0
2023-02-14T08:37:07.719Z,0
2023-02-14T08:38:07.729Z,1.7000000000000002
2023-02-14T08:39:07.733Z,0
2023-02-14T08:40:07.738Z,0
2023-02-14T08:41:09.090Z,0
2023-02-14T08:42:07.735Z,0
2023-02-14T08:43:07.742Z,0
2023-02-14T08:44:07.737Z,0
2023-02-14T08:45:07.725Z,0
2023-02-14T08:46:07.738Z,0
2023-02-14T08:47:07.870Z,0
2023-02-14T08:48:07.747Z,0
2023-02-14T08:49:07.765Z,0
2023-02-14T08:50:07.761Z,0
2023-02-14T08:51:07.765Z,0
2023-02-14T08:52:07.743Z,0
2023-02-14T08:53:07.761Z,0
2023-02-14T08:54:07.748Z,0
2023-02-14T08:55:07.752Z,0
2023-02-14T08:56:07.759Z,0
2023-02-14T08:57:07.776Z,0
2023-02-14T08:58:07.816Z,0
2023-02-14T08:59:07.762Z,0
2023-02-14T09:00:07.754Z,0
2023-02-14T09:01:07.823Z,0
2023-02-14T09:02:07.781Z,0
2023-02-14T09:03:07.782Z,0
2023-02-14T09:04:07.810Z,0
2023-02-14T09:05:07.754Z,0
2023-02-14T09:06:07.870Z,0
2023-02-14T09:07:07.772Z,0
2023-02-14T09:08:07.893Z,0
2023-02-14T09:09:07.760Z,0
2023-02-14T09:10:07.775Z,0
2023-02-14T09:11:07.812Z,0
2023-02-14T09:12:07.762Z,0
2023-02-14T09:13:07.763Z,0
2023-02-14T09:14:07.777Z,0
2023-02-14T09:15:07.798Z,0
2023-02-14T09:16:07.804Z,0
2023-02-14T09:17:07.766Z,0
2023-02-14T09:18:07.762Z,0
2023-02-14T09:19:07.777Z,0
2023-02-14T09:20:07.788Z,0
2023-02-14T09:21:07.818Z,0
2023-02-14T09:22:07.847Z,0
2023-02-14T09:23:07.786Z,0
2023-02-14T09:24:07.786Z,0
2023-02-14T09:25:07.792Z,0
2023-02-14T09:26:07.832Z,0
2023-02-14T09:27:07.807Z,0
2023-02-14T09:28:07.777Z,0
2023-02-14T09:29:07.789Z,0
2023-02-14T09:30:07.908Z,0
2023-02-14T09:31:07.863Z,0
2023-02-14T09:32:07.865Z,0
2023-02-14T09:33:07.782Z,0
2023-02-14T09:34:07.791Z,0
2023-02-14T09:35:07.794Z,0
2023-02-14T09:36:07.793Z,0
2023-02-14T09:37:07.790Z,0
2023-02-14T09:38:07.817Z,0
2023-02-14T09:39:07.787Z,0
2023-02-14T09:40:07.812Z,0
2023-02-14T09:41:07.771Z,0
2023-02-14T09:42:07.794Z,0
2023-02-14T09:43:07.806Z,0
2023-02-14T09:44:07.798Z,0
2023-02-14T09:45:07.807Z,0
2023-02-14T09:46:07.828Z,0
2023-02-14T09:47:07.804Z,0
2023-02-14T09:48:07.815Z,0
2023-02-14T09:49:07.858Z,0
2023-02-14T09:50:07.883Z,0
2023-02-14T09:51:07.798Z,0
2023-02-14T09:52:07.805Z,0
2023-02-14T09:53:07.789Z,0
2023-02-14T09:54:07.821Z,0
2023-02-14T09:55:07.804Z,0
2023-02-14T09:56:07.812Z,0
2023-02-14T09:57:07.816Z,0
2023-02-14T09:58:07.808Z,0
2023-02-14T09:59:07.822Z,0
2023-02-14T10:00:07.823Z,0
2023-02-14T10:01:07.923Z,0
2023-02-14T10:02:07.879Z,0
2023-02-14T10:03:07.823Z,0
2023-02-14T10:04:07.814Z,0
2023-02-14T10:05:07.814Z,0
2023-02-14T10:06:07.813Z,0
2023-02-14T10:07:07.816Z,0
2023-02-14T10:08:07.822Z,0
2023-02-14T10:09:07.849Z,0
2023-02-14T10:10:07.872Z,0
2023-02-14T10:11:07.823Z,0
2023-02-14T10:12:07.830Z,0
2023-02-14T10:13:07.836Z,0
2023-02-14T10:14:07.820Z,0
2023-02-14T10:15:07.823Z,0
2023-02-14T10:16:07.852Z,0
2023-02-14T10:17:07.831Z,0
2023-02-14T10:18:07.831Z,0
2023-02-14T10:19:07.830Z,0
2023-02-14T10:20:07.828Z,0
2023-02-14T10:21:07.833Z,0
2023-02-14T10:22:07.843Z,0
2023-02-14T10:23:07.827Z,0
2023-02-14T10:24:07.829Z,0
2023-02-14T10:25:07.842Z,0
2023-02-14T10:26:07.865Z,0
2023-02-14T10:27:10.651Z,0
2023-02-14T10:28:07.826Z,0
2023-02-14T10:29:07.852Z,0
2023-02-14T10:30:07.894Z,0
2023-02-14T10:31:07.857Z,0
2023-02-14T10:32:07.932Z,0
2023-02-14T10:33:07.834Z,3.9000000000000004
2023-02-14T10:34:07.840Z,0
2023-02-14T10:35:07.837Z,0
2023-02-14T10:36:07.843Z,0
2023-02-14T10:37:07.836Z,0
2023-02-14T10:38:07.843Z,0
2023-02-14T10:39:07.858Z,0
2023-02-14T10:40:07.850Z,0
2023-02-14T10:41:07.846Z,0
2023-02-14T10:42:07.849Z,0
2023-02-14T10:43:07.871Z,0
2023-02-14T10:44:07.858Z,0
2023-02-14T10:45:07.853Z,0
2023-02-14T10:46:07.897Z,0
2023-02-14T10:47:07.846Z,0
2023-02-14T10:48:07.854Z,0
2023-02-14T10:49:07.863Z,0
2023-02-14T10:50:07.860Z,0
2023-02-14T10:51:07.868Z,0
2023-02-14T10:52:07.855Z,0
2023-02-14T10:53:07.851Z,0
2023-02-14T10:54:07.848Z,0
2023-02-14T10:55:07.864Z,0
2023-02-14T10:56:07.864Z,0
2023-02-14T10:57:07.861Z,0
2023-02-14T10:58:07.857Z,0
2023-02-14T10:59:07.931Z,0
2023-02-14T11:00:07.882Z,0
2023-02-14T11:01:07.876Z,0
2023-02-14T11:02:07.854Z,0
2023-02-14T11:03:07.958Z,0
2023-02-14T11:04:07.865Z,0
2023-02-14T11:05:07.866Z,0
2023-02-14T11:06:07.862Z,0
2023-02-14T11:07:07.876Z,0
2023-02-14T11:08:07.880Z,0
2023-02-14T11:09:07.857Z,0
2023-02-14T11:10:07.868Z,0
2023-02-14T11:11:07.869Z,0
2023-02-14T11:12:07.911Z,0
2023-02-14T11:13:07.870Z,0
2023-02-14T11:14:07.872Z,0
2023-02-14T11:15:07.938Z,0
2023-02-14T11:16:07.867Z,0
2023-02-14T11:17:07.870Z,0
2023-02-14T11:18:07.873Z,0
2023-02-14T11:19:07.863Z,0
2023-02-14T11:20:07.865Z,0
2023-02-14T11:21:07.879Z,0
2023-02-14T11:22:07.875Z,0
2023-02-14T11:23:07.867Z,0
2023-02-14T11:24:07.875Z,0
2023-02-14T11:25:07.876Z,0
2023-02-14T11:26:07.886Z,0
2023-02-14T11:27:07.891Z,0
2023-02-14T11:28:07.896Z,0
2023-02-14T11:29:07.886Z,0
2023-02-14T11:30:07.928Z,0
2023-02-14T11:31:08.012Z,0
2023-02-14T11:32:07.879Z,0
2023-02-14T11:33:07.881Z,0
2023-02-14T11:34:07.879Z,0
2023-02-14T11:35:07.902Z,0
2023-02-14T11:36:07.887Z,0
2023-02-14T11:37:07.879Z,0
2023-02-14T11:38:07.887Z,0
2023-02-14T11:39:07.887Z,0
2023-02-14T11:40:07.889Z,0
2023-02-14T11:41:07.895Z,0
2023-02-14T11:42:07.887Z,0
2023-02-14T11:43:13.730Z,0
2023-02-14T11:44:07.879Z,0
2023-02-14T11:45:07.892Z,0
2023-02-14T11:46:07.954Z,0
2023-02-14T11:47:08.621Z,0
2023-02-14T11:48:07.881Z,0
2023-02-14T11:49:07.891Z,0
2023-02-14T11:50:07.905Z,0
2023-02-14T11:51:07.913Z,0
2023-02-14T11:52:09.960Z,0
2023-02-14T11:53:07.901Z,0
2023-02-14T11:54:07.900Z,0
2023-02-14T11:55:07.899Z,0
2023-02-14T11:56:07.894Z,0
2023-02-14T11:57:07.898Z,0
2023-02-14T11:58:07.896Z,0
2023-02-14T11:59:07.906Z,0
2023-02-14T12:00:07.920Z,0
2023-02-14T12:01:07.920Z,0
2023-02-14T12:02:07.944Z,0
2023-02-14T12:03:07.954Z,0
2023-02-14T12:04:07.918Z,0
2023-02-14T12:05:07.918Z,0
2023-02-14T12:06:07.912Z,0
2023-02-14T12:07:07.902Z,0
2023-02-14T12:08:07.909Z,0
2023-02-14T12:09:07.924Z,0
2023-02-14T12:10:07.906Z,0
2023-02-14T12:11:07.909Z,0
2023-02-14T12:12:07.918Z,0
2023-02-14T12:13:07.900Z,0
2023-02-14T12:14:07.900Z,0
2023-02-14T12:15:07.916Z,0
2023-02-14T12:16:07.957Z,0
2023-02-14T12:17:07.942Z,0
2023-02-14T12:18:07.904Z,0
2023-02-14T12:19:07.956Z,0
2023-02-14T12:20:07.917Z,0
2023-02-14T12:21:07.903Z,0
2023-02-14T12:22:07.926Z,0
2023-02-14T12:23:07.914Z,0
2023-02-14T12:24:07.921Z,0
2023-02-14T12:25:07.909Z,0
2023-02-14T12:26:07.917Z,0
2023-02-14T12:27:07.908Z,0
2023-02-14T12:28:07.909Z,0
2023-02-14T12:29:07.911Z,0
2023-02-14T12:30:07.934Z,0
2023-02-14T12:31:07.981Z,0
2023-02-14T12:32:07.984Z,0
2023-02-14T12:33:07.924Z,0
2023-02-14T12:34:07.909Z,0
2023-02-14T12:35:07.925Z,0
2023-02-14T12:36:07.914Z,0
2023-02-14T12:37:07.908Z,0
2023-02-14T12:38:07.911Z,0
2023-02-14T12:39:07.920Z,0
2023-02-14T12:40:07.905Z,0
2023-02-14T12:41:07.937Z,0
2023-02-14T12:42:07.898Z,0
2023-02-14T12:43:07.914Z,0
2023-02-14T12:44:07.920Z,0
2023-02-14T12:45:07.902Z,0
2023-02-14T12:46:07.993Z,0
2023-02-14T12:47:07.919Z,0
2023-02-14T12:48:07.918Z,0
2023-02-14T12:49:07.911Z,0
2023-02-14T12:50:07.918Z,0
2023-02-14T12:51:07.946Z,0
2023-02-14T12:52:07.964Z,0
2023-02-14T12:53:07.922Z,0
2023-02-14T12:54:07.916Z,0
2023-02-14T12:55:07.927Z,0
2023-02-14T12:56:07.962Z,0
2023-02-14T12:57:07.928Z,0
2023-02-14T12:58:07.927Z,0
2023-02-14T12:59:07.923Z,0
2023-02-14T13:00:07.926Z,0
2023-02-14T13:01:07.928Z,0
2023-02-14T13:02:07.975Z,0
2023-02-14T13:03:08.021Z,0
2023-02-14T13:04:07.940Z,0
2023-02-14T13:05:07.941Z,0
2023-02-14T13:06:07.931Z,0
2023-02-14T13:07:08.055Z,0
2023-02-14T13:08:07.939Z,0
2023-02-14T13:09:07.952Z,0
2023-02-14T13:10:07.945Z,0
2023-02-14T13:11:07.932Z,0
2023-02-14T13:12:07.958Z,0
2023-02-14T13:13:07.933Z,0
2023-02-14T13:14:07.946Z,0
2023-02-14T13:15:07.958Z,0
2023-02-14T13:16:07.980Z,0
2023-02-14T13:17:07.968Z,0
2023-02-14T13:18:07.944Z,0
2023-02-14T13:19:07.952Z,0
2023-02-14T13:20:07.951Z,0
2023-02-14T13:21:07.952Z,0
2023-02-14T13:22:07.957Z,0
2023-02-14T13:23:07.974Z,0
2023-02-14T13:24:07.958Z,0
2023-02-14T13:25:07.950Z,0
2023-02-14T13:26:07.960Z,0
2023-02-14T13:27:07.950Z,0
2023-02-14T13:28:07.960Z,0
2023-02-14T13:29:07.952Z,0
2023-02-14T13:30:07.996Z,0
2023-02-14T13:31:08.076Z,0
2023-02-14T13:32:07.991Z,0
2023-02-14T13:33:07.954Z,0
2023-02-14T13:34:07.968Z,0
2023-02-14T13:35:07.961Z,0
2023-02-14T13:36:08.050Z,0
2023-02-14T13:37:07.966Z,0
2023-02-14T13:38:07.969Z,0
2023-02-14T13:39:07.991Z,0
2023-02-14T13:40:07.963Z,0
2023-02-14T13:41:07.967Z,0
2023-02-14T13:42:07.968Z,0
2023-02-14T13:43:07.963Z,0
2023-02-14T13:44:07.977Z,0
2023-02-14T13:45:07.967Z,0
2023-02-14T13:46:07.974Z,0
2023-02-14T13:47:07.993Z,0
2023-02-14T13:48:07.980Z,0
2023-02-14T13:49:07.980Z,0
2023-02-14T13:50:07.971Z,0
2023-02-14T13:51:07.994Z,0
2023-02-14T13:52:07.985Z,0
2023-02-14T13:53:07.978Z,0
2023-02-14T13:54:07.995Z,0
2023-02-14T13:55:08.018Z,0
2023-02-14T13:56:07.984Z,0
2023-02-14T13:57:07.999Z,0
2023-02-14T13:58:07.985Z,0
2023-02-14T13:59:07.982Z,0
2023-02-14T14:00:07.986Z,0
2023-02-14T14:01:08.021Z,0
2023-02-14T14:02:07.990Z,0
2023-02-14T14:03:07.987Z,0
2023-02-14T14:04:08.046Z,0
2023-02-14T14:05:07.992Z,0
2023-02-14T14:06:07.988Z,0
2023-02-14T14:07:07.999Z,0
2023-02-14T14:08:08.004Z,0
2023-02-14T14:09:07.995Z,0
2023-02-14T14:10:07.997Z,0
2023-02-14T14:11:08.027Z,0
2023-02-14T14:12:08.010Z,0
2023-02-14T14:13:08.012Z,0
2023-02-14T14:14:07.999Z,0
2023-02-14T14:15:08.060Z,0
2023-02-14T14:16:08.024Z,0
2023-02-14T14:17:08.007Z,0
2023-02-14T14:18:08.017Z,0
2023-02-14T14:19:08.021Z,0
2023-02-14T14:20:08.008Z,0
2023-02-14T14:21:08.020Z,0
2023-02-14T14:22:08.013Z,0
2023-02-14T14:23:08.016Z,0
2023-02-14T14:24:08.007Z,0
2023-02-14T14:25:08.024Z,0
2023-02-14T14:26:08.013Z,0
2023-02-14T14:27:08.059Z,0
2023-02-14T14:28:08.022Z,0
2023-02-14T14:29:08.007Z,0
2023-02-14T14:30:08.070Z,0
2023-02-14T14:31:08.070Z,0
2023-02-14T14:32:08.049Z,0
2023-02-14T14:33:08.021Z,0
2023-02-14T14:34:08.018Z,0
2023-02-14T14:35:08.020Z,0
2023-02-14T14:36:08.611Z,0
2023-02-14T14:37:08.052Z,0
2023-02-14T14:38:08.040Z,0
2023-02-14T14:39:08.029Z,0
2023-02-14T14:40:08.035Z,0
2023-02-14T14:41:08.036Z,0
2023-02-14T14:42:08.039Z,0
2023-02-14T14:43:08.066Z,0
2023-02-14T14:44:08.042Z,0